Chattanooga (CHA/KCHA)

Map

Destinations

Information

Location
Chattanooga, TN
Local Time
18:30 / 6:30 pm
GMT Time
23:30 / 11:30 pm
Gates
2
No FAA reported delays
METAR KCHA 182253Z 00000KT 10SM CLR 02/M12 A3038 RMK AO2 SLP294 T00171117 $
TAF KCHA 181720Z 1818/1918 36006KT P6SM SKC FM190000 00000KT P6SM SKC